sensor_id;sensor_type;location;lat;lon;timestamp;P1;P2;P0
74436;PMS7003;62868;52.360;30.424;2024-02-26T00:04:36;5;4.3;3.3
74436;PMS7003;62868;52.360;30.424;2024-02-26T00:09:40;6.7;5.7;3.7
74436;PMS7003;62868;52.360;30.424;2024-02-26T00:14:18;7.3;5;4.3
74436;PMS7003;62868;52.360;30.424;2024-02-26T00:19:16;6.7;6;3.3
74436;PMS7003;62868;52.360;30.424;2024-02-26T00:24:54;4.8;4.5;3.3
74436;PMS7003;62868;52.360;30.424;2024-02-26T00:29:32;5;3.7;2.7
74436;PMS7003;62868;52.360;30.424;2024-02-26T00:34:56;7.7;6;4
74436;PMS7003;62868;52.360;30.424;2024-02-26T00:39:24;7.3;4.7;3
74436;PMS7003;62868;52.360;30.424;2024-02-26T00:44:46;7.3;5;4
74436;PMS7003;62868;52.360;30.424;2024-02-26T00:49:32;6.7;5.7;4.3
74436;PMS7003;62868;52.360;30.424;2024-02-26T00:54:34;7;5.7;3.7
74436;PMS7003;62868;52.360;30.424;2024-02-26T00:59:48;7.3;6;4.7
74436;PMS7003;62868;52.360;30.424;2024-02-26T01:04:58;7.5;5.5;4
74436;PMS7003;62868;52.360;30.424;2024-02-26T01:09:16;7.7;5;3.3
74436;PMS7003;62868;52.360;30.424;2024-02-26T01:14:58;7.7;4.3;3.7
74436;PMS7003;62868;52.360;30.424;2024-02-26T01:19:58;6.3;3.7;2.3
74436;PMS7003;62868;52.360;30.424;2024-02-26T01:24:48;5.5;4.5;2.8
74436;PMS7003;62868;52.360;30.424;2024-02-26T01:29:38;4;3.7;3
74436;PMS7003;62868;52.360;30.424;2024-02-26T01:34:18;5.7;4.3;3.7
74436;PMS7003;62868;52.360;30.424;2024-02-26T01:39:16;4.3;4.3;3.7
74436;PMS7003;62868;52.360;30.424;2024-02-26T01:44:32;6;5;3.8
74436;PMS7003;62868;52.360;30.424;2024-02-26T01:49:56;6;5.3;3.7
74436;PMS7003;62868;52.360;30.424;2024-02-26T01:54:32;4.3;4.3;2.7
74436;PMS7003;62868;52.360;30.424;2024-02-26T01:59:18;4;2.8;2.3
74436;PMS7003;62868;52.360;30.424;2024-02-26T02:04:16;6;4;2.3
74436;PMS7003;62868;52.360;30.424;2024-02-26T02:09:32;2.7;2.7;2.3
74436;PMS7003;62868;52.360;30.424;2024-02-26T02:14:32;4;2;1.3
74436;PMS7003;62868;52.360;30.424;2024-02-26T02:19:46;2;1.8;1.3
74436;PMS7003;62868;52.360;30.424;2024-02-26T02:24:40;3;2;1.7
74436;PMS7003;62868;52.360;30.424;2024-02-26T02:29:42;3.3;1.7;1.3
74436;PMS7003;62868;52.360;30.424;2024-02-26T02:34:58;1.7;1.7;1
74436;PMS7003;62868;52.360;30.424;2024-02-26T02:39:40;2.8;2.5;2
74436;PMS7003;62868;52.360;30.424;2024-02-26T02:44:30;2.3;2.3;2.3
74436;PMS7003;62868;52.360;30.424;2024-02-26T02:49:46;2.3;1.7;1.3
74436;PMS7003;62868;52.360;30.424;2024-02-26T02:54:48;4.7;3.3;2.3
74436;PMS7003;62868;52.360;30.424;2024-02-26T02:59:18;2;2;1.5
74436;PMS7003;62868;52.360;30.424;2024-02-26T03:04:38;1.7;1.7;1
74436;PMS7003;62868;52.360;30.424;2024-02-26T03:09:16;2.3;1.3;1
74436;PMS7003;62868;52.360;30.424;2024-02-26T03:14:16;2.7;1.3;1
74436;PMS7003;62868;52.360;30.424;2024-02-26T03:19:24;1.5;1.3;1.3
74436;PMS7003;62868;52.360;30.424;2024-02-26T03:24:24;2.7;2;1
74436;PMS7003;62868;52.360;30.424;2024-02-26T03:29:24;2;2;1.3
74436;PMS7003;62868;52.360;30.424;2024-02-26T03:34:26;3.7;2;1
74436;PMS7003;62868;52.360;30.424;2024-02-26T03:39:32;1.8;1.5;1.3
74436;PMS7003;62868;52.360;30.424;2024-02-26T03:44:58;4;2.7;1.7
74436;PMS7003;62868;52.360;30.424;2024-02-26T03:49:32;2.3;1.3;1.3
74436;PMS7003;62868;52.360;30.424;2024-02-26T03:54:34;2.3;2;1
74436;PMS7003;62868;52.360;30.424;2024-02-26T03:59:24;3;2.3;1.7
74436;PMS7003;62868;52.360;30.424;2024-02-26T04:04:42;2;2;1.3
74436;PMS7003;62868;52.360;30.424;2024-02-26T04:09:48;3.3;2;1.3
74436;PMS7003;62868;52.360;30.424;2024-02-26T04:14:24;1.8;1.5;1
74436;PMS7003;62868;52.360;30.424;2024-02-26T04:19:36;2;1.7;1
74436;PMS7003;62868;52.360;30.424;2024-02-26T04:24:46;1;0.7;0.7
74436;PMS7003;62868;52.360;30.424;2024-02-26T04:29:58;2.3;1.7;1
74436;PMS7003;62868;52.360;30.424;2024-02-26T04:34:38;2;1.8;1
74436;PMS7003;62868;52.360;30.424;2024-02-26T04:39:58;1.7;1.3;1
74436;PMS7003;62868;52.360;30.424;2024-02-26T04:44:16;3;1.3;1
74436;PMS7003;62868;52.360;30.424;2024-02-26T04:49:24;2.7;2.7;1.3
74436;PMS7003;62868;52.360;30.424;2024-02-26T04:54:28;3;2.3;1.5
74436;PMS7003;62868;52.360;30.424;2024-02-26T04:59:32;2.3;2;1.3
74436;PMS7003;62868;52.360;30.424;2024-02-26T05:04:16;3.7;2.3;1.7
74436;PMS7003;62868;52.360;30.424;2024-02-26T05:09:58;2.3;2;1.3
74436;PMS7003;62868;52.360;30.424;2024-02-26T05:14:44;2.8;1.8;1.8
74436;PMS7003;62868;52.360;30.424;2024-02-26T05:19:56;3;2.7;1.7
74436;PMS7003;62868;52.360;30.424;2024-02-26T05:24:54;3;2.3;2
74436;PMS7003;62868;52.360;30.424;2024-02-26T05:29:24;5;2.7;2
74436;PMS7003;62868;52.360;30.424;2024-02-26T05:34:56;3;2.3;1.5
74436;PMS7003;62868;52.360;30.424;2024-02-26T05:39:54;3;2;1
74436;PMS7003;62868;52.360;30.424;2024-02-26T05:44:46;5;3;2.3
74436;PMS7003;62868;52.360;30.424;2024-02-26T05:49:56;4.5;3.3;2.3
74436;PMS7003;62868;52.360;30.424;2024-02-26T05:54:42;5;2.7;2.3
74436;PMS7003;62868;52.360;30.424;2024-02-26T05:59:48;4.7;3;2
74436;PMS7003;62868;52.360;30.424;2024-02-26T06:04:56;4.3;3.3;2
74436;PMS7003;62868;52.360;30.424;2024-02-26T06:09:36;4.8;3.3;2.5
74436;PMS7003;62868;52.360;30.424;2024-02-26T06:14:56;6;4.7;2.7
74436;PMS7003;62868;52.360;30.424;2024-02-26T06:19:36;4.7;3.3;2.3
74436;PMS7003;62868;52.360;30.424;2024-02-26T06:24:38;5.7;5.7;3.7
74436;PMS7003;62868;52.360;30.424;2024-02-26T06:29:46;11.5;8.5;6.3
74436;PMS7003;62868;52.360;30.424;2024-02-26T06:34:32;7.3;7;3.7
74436;PMS7003;62868;52.360;30.424;2024-02-26T06:39:24;5.7;4;3
74436;PMS7003;62868;52.360;30.424;2024-02-26T06:44:54;5;3.7;2.3
74436;PMS7003;62868;52.360;30.424;2024-02-26T06:49:46;10.8;8;5.5
74436;PMS7003;62868;52.360;30.424;2024-02-26T06:54:54;13;9.7;6.3
74436;PMS7003;62868;52.360;30.424;2024-02-26T06:59:46;11;9.7;5.7
74436;PMS7003;62868;52.360;30.424;2024-02-26T07:04:36;9.7;7.3;5.3
74436;PMS7003;62868;52.360;30.424;2024-02-26T07:09:54;8.3;6.3;4.5
74436;PMS7003;62868;52.360;30.424;2024-02-26T07:14:54;8;6;3.7
74436;PMS7003;62868;52.360;30.424;2024-02-26T07:19:44;7.7;6.3;5.3
74436;PMS7003;62868;52.360;30.424;2024-02-26T07:24:32;7;4.3;2.7
74436;PMS7003;62868;52.360;30.424;2024-02-26T07:29:40;8;6.8;5
74436;PMS7003;62868;52.360;30.424;2024-02-26T07:34:24;8;6;4.3
74436;PMS7003;62868;52.360;30.424;2024-02-26T07:39:54;10.3;7.3;4.7
74436;PMS7003;62868;52.360;30.424;2024-02-26T07:44:44;10.5;9.5;6.8
74436;PMS7003;62868;52.360;30.424;2024-02-26T07:49:54;12;7.7;5.3
74436;PMS7003;62868;52.360;30.424;2024-02-26T07:54:44;12.7;11.7;7.7
74436;PMS7003;62868;52.360;30.424;2024-02-26T07:59:52;12.3;10;6.3
74436;PMS7003;62868;52.360;30.424;2024-02-26T08:04:16;12;9.5;6.5
74436;PMS7003;62868;52.360;30.424;2024-02-26T08:09:16;11.3;10;8
74436;PMS7003;62868;52.360;30.424;2024-02-26T08:14:24;14.3;11.7;9.3
74436;PMS7003;62868;52.360;30.424;2024-02-26T08:19:24;10.3;8.7;6.3
74436;PMS7003;62868;52.360;30.424;2024-02-26T08:24:38;8.8;7.5;6
74436;PMS7003;62868;52.360;30.424;2024-02-26T08:29:32;9.3;8;6
74436;PMS7003;62868;52.360;30.424;2024-02-26T08:34:56;8.7;6.7;5
74436;PMS7003;62868;52.360;30.424;2024-02-26T08:39:16;8;6.7;4.7
74436;PMS7003;62868;52.360;30.424;2024-02-26T08:44:54;7;6.8;4.8
74436;PMS7003;62868;52.360;30.424;2024-02-26T08:49:16;8.3;6.3;4.3
74436;PMS7003;62868;52.360;30.424;2024-02-26T08:54:44;6.3;6;4.3
74436;PMS7003;62868;52.360;30.424;2024-02-26T08:59:16;6.3;6.3;4.7
74436;PMS7003;62868;52.360;30.424;2024-02-26T09:04:40;7.5;6.8;5.3
74436;PMS7003;62868;52.360;30.424;2024-02-26T09:09:54;6;5.7;4.3
74436;PMS7003;62868;52.360;30.424;2024-02-26T09:14:24;5.7;5;3
74436;PMS7003;62868;52.360;30.424;2024-02-26T09:19:16;5.7;4.7;3.7
74436;PMS7003;62868;52.360;30.424;2024-02-26T09:24:54;4.8;3.5;3.3
74436;PMS7003;62868;52.360;30.424;2024-02-26T09:29:48;5.7;5.3;3.7
74436;PMS7003;62868;52.360;30.424;2024-02-26T09:34:18;6.3;3.7;2.3
74436;PMS7003;62868;52.360;30.424;2024-02-26T09:39:46;5.5;4.5;3.5
74436;PMS7003;62868;52.360;30.424;2024-02-26T09:44:18;6.7;5;3.3
74436;PMS7003;62868;52.360;30.424;2024-02-26T09:49:40;5.3;3.7;3
74436;PMS7003;62868;52.360;30.424;2024-02-26T09:54:16;6.5;6.5;5
74436;PMS7003;62868;52.360;30.424;2024-02-26T09:59:16;5;4.7;3.3
74436;PMS7003;62868;52.360;30.424;2024-02-26T10:04:16;4.3;3.7;3
74436;PMS7003;62868;52.360;30.424;2024-02-26T10:09:24;6.3;5.3;3.3
74436;PMS7003;62868;52.360;30.424;2024-02-26T10:14:16;7;5.3;3.7
74436;PMS7003;62868;52.360;30.424;2024-02-26T10:20:00;5.3;3.7;3.7
74436;PMS7003;62868;52.360;30.424;2024-02-26T10:24:46;6.5;5;3.8
74436;PMS7003;62868;52.360;30.424;2024-02-26T10:29:42;5.3;5;3.3
74436;PMS7003;62868;52.360;30.424;2024-02-26T10:34:32;5;5;3.5
74436;PMS7003;62868;52.360;30.424;2024-02-26T10:39:46;8.5;7.8;5.3
74436;PMS7003;62868;52.360;30.424;2024-02-26T10:44:26;8;6;4.7
74436;PMS7003;62868;52.360;30.424;2024-02-26T10:49:24;8.3;7;5
74436;PMS7003;62868;52.360;30.424;2024-02-26T10:54:16;6;5.3;3.3
74436;PMS7003;62868;52.360;30.424;2024-02-26T10:59:34;5.3;5.3;3.8
74436;PMS7003;62868;52.360;30.424;2024-02-26T11:04:58;5.7;3.3;2.7
74436;PMS7003;62868;52.360;30.424;2024-02-26T11:09:39;5.3;4.7;2.7
74436;PMS7003;62868;52.360;30.424;2024-02-26T11:14:48;3.5;3;2.8
74436;PMS7003;62868;52.360;30.424;2024-02-26T11:19:32;4.3;3;2.3
74436;PMS7003;62868;52.360;30.424;2024-02-26T11:24:56;5;3.3;2.7
74436;PMS7003;62868;52.360;30.424;2024-02-26T11:29:29;5;3.7;2.7
74436;PMS7003;62868;52.360;30.424;2024-02-26T11:34:24;4.5;3.3;2.8
74436;PMS7003;62868;52.360;30.424;2024-02-26T11:39:46;5;3.3;2.7
74436;PMS7003;62868;52.360;30.424;2024-02-26T11:44:58;4.7;3.3;2.3
74436;PMS7003;62868;52.360;30.424;2024-02-26T11:49:48;3.7;3.7;2.3
74436;PMS7003;62868;52.360;30.424;2024-02-26T11:54:58;4.5;3.3;3
74436;PMS7003;62868;52.360;30.424;2024-02-26T11:59:48;8.7;7.7;4.7
74436;PMS7003;62868;52.360;30.424;2024-02-26T12:04:27;7.7;5.7;3.7
74436;PMS7003;62868;52.360;30.424;2024-02-26T12:09:32;6.7;5.3;4.3
74436;PMS7003;62868;52.360;30.424;2024-02-26T12:14:50;7.5;5.8;3.5
74436;PMS7003;62868;52.360;30.424;2024-02-26T12:19:33;5.7;4;3
74436;PMS7003;62868;52.360;30.424;2024-02-26T12:24:32;6.7;4.7;3.7
74436;PMS7003;62868;52.360;30.424;2024-02-26T12:29:30;6.3;3.7;2.7
74436;PMS7003;62868;52.360;30.424;2024-02-26T12:34:48;4.5;3.8;2.5
74436;PMS7003;62868;52.360;30.424;2024-02-26T12:39:58;5.7;4;2.7
74436;PMS7003;62868;52.360;30.424;2024-02-26T12:44:30;5.3;4.3;2.7
74436;PMS7003;62868;52.360;30.424;2024-02-26T12:49:58;4.7;3.3;2.7
74436;PMS7003;62868;52.360;30.424;2024-02-26T12:54:24;6;4.5;3
74436;PMS7003;62868;52.360;30.424;2024-02-26T12:59:16;6.3;4.7;3
74436;PMS7003;62868;52.360;30.424;2024-02-26T13:04:18;3.3;3;2
74436;PMS7003;62868;52.360;30.424;2024-02-26T13:09:33;5.5;4.3;3.3
74436;PMS7003;62868;52.360;30.424;2024-02-26T13:14:28;6;4.3;3.3
74436;PMS7003;62868;52.360;30.424;2024-02-26T13:19:56;5.7;4;2.7
74436;PMS7003;62868;52.360;30.424;2024-02-26T13:24:52;6.7;4.7;3
74436;PMS7003;62868;52.360;30.424;2024-02-26T13:30:05;7.5;5.3;3.3
74436;PMS7003;62868;52.360;30.424;2024-02-26T13:35:04;8.7;6.3;4.7
74436;PMS7003;62868;52.360;30.424;2024-02-26T13:39:21;8;7.3;6
74436;PMS7003;62868;52.360;30.424;2024-02-26T13:44:58;6.7;6.3;4.3
74436;PMS7003;62868;52.360;30.424;2024-02-26T13:49:36;8;5.5;3.5
74436;PMS7003;62868;52.360;30.424;2024-02-26T13:54:48;6.3;5.7;3.7
74436;PMS7003;62868;52.360;30.424;2024-02-26T13:59:32;5.7;3.7;2.7
74436;PMS7003;62868;52.360;30.424;2024-02-26T14:04:35;3.7;3.3;2.3
74436;PMS7003;62868;52.360;30.424;2024-02-26T14:09:40;3.3;2.8;2.5
74436;PMS7003;62868;52.360;30.424;2024-02-26T14:14:58;4;4;2.7
74436;PMS7003;62868;52.360;30.424;2024-02-26T14:19:38;3.3;3.3;2.3
74436;PMS7003;62868;52.360;30.424;2024-02-26T14:24:58;4.7;3;2
74436;PMS7003;62868;52.360;30.424;2024-02-26T14:29:30;4;3.3;2.5
74436;PMS7003;62868;52.360;30.424;2024-02-26T14:34:42;4;3.3;2.7
74436;PMS7003;62868;52.360;30.424;2024-02-26T14:39:38;4.7;3.7;2.3
74436;PMS7003;62868;52.360;30.424;2024-02-26T14:44:25;4;2.7;2
74436;PMS7003;62868;52.360;30.424;2024-02-26T14:49:48;2.3;2.3;1.8
74436;PMS7003;62868;52.360;30.424;2024-02-26T14:54:24;3;2.7;1.7
74436;PMS7003;62868;52.360;30.424;2024-02-26T14:59:48;4;2.7;1.7
74436;PMS7003;62868;52.360;30.424;2024-02-26T15:04:32;3.3;2.3;1.8
74436;PMS7003;62868;52.360;30.424;2024-02-26T15:09:56;5.3;3;2
74436;PMS7003;62868;52.360;30.424;2024-02-26T15:14:32;3.7;2.7;2.3
74436;PMS7003;62868;52.360;30.424;2024-02-26T15:19:20;4.3;3.7;2.3
74436;PMS7003;62868;52.360;30.424;2024-02-26T15:24:32;5;3.5;2.5
74436;PMS7003;62868;52.360;30.424;2024-02-26T15:29:44;4.3;3;2.3
74436;PMS7003;62868;52.360;30.424;2024-02-26T15:34:30;3.7;3;2.3
74436;PMS7003;62868;52.360;30.424;2024-02-26T15:44:59;4.5;3.8;2.5
74436;PMS7003;62868;52.360;30.424;2024-02-26T15:49:26;6;3.7;3
74436;PMS7003;62868;52.360;30.424;2024-02-26T15:54:46;5;3.3;2.3
74436;PMS7003;62868;52.360;30.424;2024-02-26T15:59:59;7.3;5.3;4
74436;PMS7003;62868;52.360;30.424;2024-02-26T16:04:56;3.3;3;2.3
74436;PMS7003;62868;52.360;30.424;2024-02-26T16:09:50;3.3;3;2
74436;PMS7003;62868;52.360;30.424;2024-02-26T16:14:25;3.3;3;2
74436;PMS7003;62868;52.360;30.424;2024-02-26T16:19:17;4;2.7;2.7
74436;PMS7003;62868;52.360;30.424;2024-02-26T16:24:33;5.5;4.3;2.5
74436;PMS7003;62868;52.360;30.424;2024-02-26T16:29:26;3.7;3.3;2.7
74436;PMS7003;62868;52.360;30.424;2024-02-26T16:34:16;3.7;3.3;2.3
74436;PMS7003;62868;52.360;30.424;2024-02-26T16:39:46;6;4.7;3
74436;PMS7003;62868;52.360;30.424;2024-02-26T16:44:40;5.5;4;3
74436;PMS7003;62868;52.360;30.424;2024-02-26T16:49:38;3.3;3;2.3
74436;PMS7003;62868;52.360;30.424;2024-02-26T16:54:56;7;5.3;3
74436;PMS7003;62868;52.360;30.424;2024-02-26T16:59:23;4.5;3.8;2.5
74436;PMS7003;62868;52.360;30.424;2024-02-26T17:04:47;4;2.7;2
74436;PMS7003;62868;52.360;30.424;2024-02-26T17:09:25;5;4.3;3
74436;PMS7003;62868;52.360;30.424;2024-02-26T17:14:41;5.3;3.3;2.3
74436;PMS7003;62868;52.360;30.424;2024-02-26T17:19:57;2.5;2;1.5
74436;PMS7003;62868;52.360;30.424;2024-02-26T17:24:57;2;2;1.7
74436;PMS7003;62868;52.360;30.424;2024-02-26T17:29:16;2;1.7;1
74436;PMS7003;62868;52.360;30.424;2024-02-26T17:34:44;2.7;2;1.3
74436;PMS7003;62868;52.360;30.424;2024-02-26T17:39:57;2.5;2.3;2
74436;PMS7003;62868;52.360;30.424;2024-02-26T17:44:49;4.3;2.7;2
74436;PMS7003;62868;52.360;30.424;2024-02-26T17:49:39;3;2.3;2
74436;PMS7003;62868;52.360;30.424;2024-02-26T17:54:17;3.3;3;2
74436;PMS7003;62868;52.360;30.424;2024-02-26T17:59:31;3.3;3;2.5
74436;PMS7003;62868;52.360;30.424;2024-02-26T18:04:25;4.3;3.7;3
74436;PMS7003;62868;52.360;30.424;2024-02-26T18:09:27;4.3;3.3;2.3
74436;PMS7003;62868;52.360;30.424;2024-02-26T18:14:41;5.3;3.3;2.3
74436;PMS7003;62868;52.360;30.424;2024-02-26T18:19:42;4.8;3.5;3.3
74436;PMS7003;62868;52.360;30.424;2024-02-26T18:24:53;5.3;4;2.7
74436;PMS7003;62868;52.360;30.424;2024-02-26T18:29:55;3.3;3;2
74436;PMS7003;62868;52.360;30.424;2024-02-26T18:34:49;4.7;3.3;2.7
74436;PMS7003;62868;52.360;30.424;2024-02-26T18:39:41;3.5;2.3;2
74436;PMS7003;62868;52.360;30.424;2024-02-26T18:44:17;4.3;3;1.7
74436;PMS7003;62868;52.360;30.424;2024-02-26T18:49:33;5.7;3;2
74436;PMS7003;62868;52.360;30.424;2024-02-26T18:54:51;5.5;4.5;3
74436;PMS7003;62868;52.360;30.424;2024-02-26T18:59:17;4;2.7;2.3
74436;PMS7003;62868;52.360;30.424;2024-02-26T19:04:17;5;3;2
74436;PMS7003;62868;52.360;30.424;2024-02-26T19:09:49;4;3;2.7
74436;PMS7003;62868;52.360;30.424;2024-02-26T19:14:59;5;4;3.5
74436;PMS7003;62868;52.360;30.424;2024-02-26T19:19:29;5.3;3.3;3.3
74436;PMS7003;62868;52.360;30.424;2024-02-26T19:24:27;5.3;4;2.7
74436;PMS7003;62868;52.360;30.424;2024-02-26T19:29:33;3;3;2.3
74436;PMS7003;62868;52.360;30.424;2024-02-26T19:34:17;5.5;4.5;3.3
74436;PMS7003;62868;52.360;30.424;2024-02-26T19:39:39;4.7;3.3;3
74436;PMS7003;62868;52.360;30.424;2024-02-26T19:44:33;4.3;3.7;2
74436;PMS7003;62868;52.360;30.424;2024-02-26T19:49:39;4.3;2.7;2
74436;PMS7003;62868;52.360;30.424;2024-02-26T19:54:59;3.5;2.8;2
74436;PMS7003;62868;52.360;30.424;2024-02-26T19:59:47;6.7;5.3;3
74436;PMS7003;62868;52.360;30.424;2024-02-26T20:04:57;4.7;4;2.7
74436;PMS7003;62868;52.360;30.424;2024-02-26T20:09:57;4.7;4;3
74436;PMS7003;62868;52.360;30.424;2024-02-26T20:14:17;5;3.3;2.5
74436;PMS7003;62868;52.360;30.424;2024-02-26T20:19:57;6.3;3.7;2.7
74436;PMS7003;62868;52.360;30.424;2024-02-26T20:24:57;4;2.7;1.7
74436;PMS7003;62868;52.360;30.424;2024-02-26T20:29:47;4;3.3;2.7
74436;PMS7003;62868;52.360;30.424;2024-02-26T20:34:25;3.3;3;2.3
74436;PMS7003;62868;52.360;30.424;2024-02-26T20:39:33;5.3;3.3;2.3
74436;PMS7003;62868;52.360;30.424;2024-02-26T20:44:27;5.3;4.3;2.7
74436;PMS7003;62868;52.360;30.424;2024-02-26T20:49:57;5;3.5;2.8
74436;PMS7003;62868;52.360;30.424;2024-02-26T20:54:35;6;4;3
74436;PMS7003;62868;52.360;30.424;2024-02-26T20:59:57;4.3;2.7;2.3
74436;PMS7003;62868;52.360;30.424;2024-02-26T21:04:17;6.7;3.7;3
74436;PMS7003;62868;52.360;30.424;2024-02-26T21:09:17;2.8;2.5;2.3
74436;PMS7003;62868;52.360;30.424;2024-02-26T21:14:25;6;2.7;2.3
74436;PMS7003;62868;52.360;30.424;2024-02-26T21:19:47;4;3;2.3
74436;PMS7003;62868;52.360;30.424;2024-02-26T21:24:25;5;3.7;2.3
74436;PMS7003;62868;52.360;30.424;2024-02-26T21:29:25;3.3;2.8;2
74436;PMS7003;62868;52.360;30.424;2024-02-26T21:34:49;6.3;3.3;2
74436;PMS7003;62868;52.360;30.424;2024-02-26T21:39:25;2;2;1.7
74436;PMS7003;62868;52.360;30.424;2024-02-26T21:44:57;4;3.7;2.3
74436;PMS7003;62868;52.360;30.424;2024-02-26T21:49:59;2.5;1.8;1.5
74436;PMS7003;62868;52.360;30.424;2024-02-26T21:54:57;3.7;3;2
74436;PMS7003;62868;52.360;30.424;2024-02-26T22:00:01;2.7;2.7;1.7
74436;PMS7003;62868;52.360;30.424;2024-02-26T22:04:35;6;4.3;2
74436;PMS7003;62868;52.360;30.424;2024-02-26T22:09:33;5;3.8;2.5
74436;PMS7003;62868;52.360;30.424;2024-02-26T22:14:43;3.7;3.3;2.3
74436;PMS7003;62868;52.360;30.424;2024-02-26T22:19:49;5;4.7;2.3
74436;PMS7003;62868;52.360;30.424;2024-02-26T22:24:59;5.7;5;3
74436;PMS7003;62868;52.360;30.424;2024-02-26T22:29:17;6;3.5;2.5
74436;PMS7003;62868;52.360;30.424;2024-02-26T22:34:59;5.7;4.3;3
74436;PMS7003;62868;52.360;30.424;2024-02-26T22:39:41;6;4.7;3.7
74436;PMS7003;62868;52.360;30.424;2024-02-26T22:44:17;7;5.5;3.3
74436;PMS7003;62868;52.360;30.424;2024-02-26T22:49:25;5;4.3;3
74436;PMS7003;62868;52.360;30.424;2024-02-26T22:54:17;5;3;2.7
74436;PMS7003;62868;52.360;30.424;2024-02-26T22:59:31;5;4.7;2.7
74436;PMS7003;62868;52.360;30.424;2024-02-26T23:04:45;4.7;4.3;3
74436;PMS7003;62868;52.360;30.424;2024-02-26T23:09:41;3.7;3.3;2.3
74436;PMS7003;62868;52.360;30.424;2024-02-26T23:14:33;5;3.7;2.7
74436;PMS7003;62868;52.360;30.424;2024-02-26T23:19:19;4.3;2.7;2.3
74436;PMS7003;62868;52.360;30.424;2024-02-26T23:24:47;4.5;3.3;2.3
74436;PMS7003;62868;52.360;30.424;2024-02-26T23:29:17;4.7;3.7;2.3
74436;PMS7003;62868;52.360;30.424;2024-02-26T23:34:31;6.3;4.3;2.7
74436;PMS7003;62868;52.360;30.424;2024-02-26T23:39:33;3.3;2.7;2
74436;PMS7003;62868;52.360;30.424;2024-02-26T23:44:47;4.8;3.8;2.3
74436;PMS7003;62868;52.360;30.424;2024-02-26T23:49:39;3.3;3.3;2.3
74436;PMS7003;62868;52.360;30.424;2024-02-26T23:54:47;5;4.3;2.7
74436;PMS7003;62868;52.360;30.424;2024-02-26T23:59:25;5.3;4.3;3.3
